Minnesota City, MN

7:03 PM CDT on September 29, 2016 (GMT -0500)
Winona Municipal-Conrad

Weather History for KONA - October, 2011

Change the Weather History Date:

Saturday, October 15, 2011

  Actual Average Record
Temperature  
Mean Temperature 52 °F -  
Max Temperature 59 °F 60 °F 75 °F (1996)
Min Temperature 44 °F 40 °F 28 °F (2006)
Degree Days  
Heating Degree Days 14    
Growing Degree Days 2 (Base 50)    
Moisture  
Dew Point 35 °F    
Average Humidity 53    
Maximum Humidity 76    
Minimum Humidity 34    
Precipitation  
Precipitation 0.00 in - - ()
Sea Level Pressure  
Sea Level Pressure 29.82 in    
Wind  
Wind Speed 12 mph (WNW)    
Max Wind Speed 18 mph    
Max Gust Speed 26 mph    
Visibility 10 miles    
Events      
Averages and records for this station are not official NWS values.
T = Trace of Precipitation, MM = Missing Value Source: NWS Daily Summary

Daily Weather History Graph

Daily Weather History Graph

Search for Another Location

Airport or City:

Trip Planner

Search our weather history database for the weather conditions in past years. The results will help you decide how hot, cold, wet, or windy it might be!

Date:

Astronomy

Oct. 15, 2011 Rise Set
Actual Time 7:21 AM CDT 6:23 PM CDT
Civil Twilight 6:52 AM CDT 6:52 PM CDT
Nautical Twilight 6:18 AM CDT 7:25 PM CDT
Astronomical Twilight 5:45 AM CDT 7:59 PM CDT
Moon 8:11 PM CDT (10/15) 10:54 AM CDT (10/15)
Length of Visible Light 12h 00m
Length of Day
11h 02m
Waning Gibbous, 89% of the Moon is Illuminated
Oct 15
Waning Gibbous
Oct 19
Last Quarter
Oct 26
New
Nov 2
First Quarter
Nov 10
Full

Hourly Weather History & Observations

Time (CDT) Temp. Windchill Dew Point Humidity Pressure Visibility Wind Dir Wind Speed Gust Speed Precip Events Conditions
12:14 AM 50.0 °F - 35.6 °F 58% 29.77 in 10.0 mi WNW 13.8 mph 19.6 mph N/A   Scattered Clouds
12:34 AM 48.2 °F - 33.8 °F 58% 29.77 in 10.0 mi WNW 11.5 mph - N/A   Clear
1:14 AM 48.2 °F - 35.6 °F 62% 29.77 in 10.0 mi WNW 11.5 mph 21.9 mph N/A   Clear
1:34 AM 48.2 °F - 35.6 °F 62% 29.77 in 10.0 mi WNW 12.7 mph 23.0 mph N/A   Clear
1:54 AM 48.2 °F - 37.4 °F 66% 29.78 in 10.0 mi WNW 10.4 mph 17.3 mph N/A   Clear
2:14 AM 48.2 °F - 37.4 °F 66% 29.79 in 10.0 mi NW 13.8 mph 19.6 mph N/A   Clear
2:34 AM 48.2 °F - 37.4 °F 66% 29.78 in 10.0 mi WNW 15.0 mph 19.6 mph N/A   Clear
2:54 AM 48.2 °F - 37.4 °F 66% 29.79 in 10.0 mi WNW 13.8 mph 20.7 mph N/A   Clear
3:14 AM 48.2 °F - 37.4 °F 66% 29.79 in 10.0 mi WNW 16.1 mph 21.9 mph N/A   Scattered Clouds
3:34 AM 48.2 °F - 37.4 °F 66% 29.79 in 10.0 mi WNW 12.7 mph 20.7 mph N/A   Clear
3:55 AM 48.2 °F - 37.4 °F 66% 29.79 in 10.0 mi WNW 16.1 mph 21.9 mph N/A   Clear
4:14 AM 48.2 °F - 37.4 °F 66% 29.79 in 10.0 mi WNW 15.0 mph 23.0 mph N/A   Clear
4:34 AM 48.2 °F - 37.4 °F 66% 29.80 in 10.0 mi WNW 15.0 mph 20.7 mph N/A   Clear
4:55 AM 44.6 °F 39.2 °F 35.6 °F 71% 29.81 in 10.0 mi NW 10.4 mph 19.6 mph N/A   Clear
5:14 AM 44.6 °F 38.8 °F 37.4 °F 76% 29.81 in 10.0 mi NW 11.5 mph 20.7 mph N/A   Clear
5:34 AM 44.6 °F 38.8 °F 37.4 °F 76% 29.81 in 10.0 mi WNW 11.5 mph 18.4 mph N/A   Clear
5:54 AM 44.6 °F 38.1 °F 37.4 °F 76% 29.82 in 10.0 mi WNW 13.8 mph 20.7 mph N/A   Clear
6:14 AM 44.6 °F 39.2 °F 35.6 °F 71% 29.82 in 10.0 mi WNW 10.4 mph 21.9 mph N/A   Clear
6:34 AM 44.6 °F 38.8 °F 37.4 °F 76% 29.82 in 10.0 mi WNW 11.5 mph 20.7 mph N/A   Clear
6:54 AM 44.6 °F 38.8 °F 37.4 °F 76% 29.83 in 10.0 mi WNW 11.5 mph 20.7 mph N/A   Clear
7:14 AM 44.6 °F 37.8 °F 37.4 °F 76% 29.83 in 10.0 mi WNW 15.0 mph 23.0 mph N/A   Clear
7:34 AM 44.6 °F 38.8 °F 37.4 °F 76% 29.84 in 10.0 mi WNW 11.5 mph 18.4 mph N/A   Clear
8:14 AM 44.6 °F 38.8 °F 37.4 °F 76% 29.85 in 10.0 mi WNW 11.5 mph 17.3 mph N/A   Clear
8:34 AM 46.4 °F 41.1 °F 37.4 °F 71% 29.85 in 10.0 mi WNW 11.5 mph 20.7 mph N/A   Clear
8:54 AM 48.2 °F - 37.4 °F 66% 29.86 in 10.0 mi WNW 11.5 mph 21.9 mph N/A   Clear
9:34 AM 48.2 °F - 35.6 °F 62% 29.86 in 10.0 mi NW 12.7 mph 21.9 mph N/A   Clear
9:54 AM 50.0 °F - 35.6 °F 58% 29.86 in 10.0 mi WNW 12.7 mph 23.0 mph N/A   Clear
10:14 AM 51.8 °F - 35.6 °F 54% 29.86 in 10.0 mi WNW 11.5 mph - N/A   Clear
10:34 AM 53.6 °F - 37.4 °F 54% 29.86 in 10.0 mi WNW 12.7 mph 23.0 mph N/A   Clear
10:54 AM 53.6 °F - 35.6 °F 51% 29.86 in 10.0 mi WNW 9.2 mph 17.3 mph N/A   Scattered Clouds
11:12 AM 53.6 °F - 35.6 °F 51% 29.86 in 10.0 mi WNW 13.8 mph 20.7 mph N/A   Scattered Clouds
11:34 AM 55.4 °F - 35.6 °F 47% 29.86 in 10.0 mi WNW 17.3 mph 24.2 mph N/A   Scattered Clouds
11:54 AM 55.4 °F - 35.6 °F 47% 29.86 in 10.0 mi WNW 11.5 mph 21.9 mph N/A   Mostly Cloudy
12:34 PM 55.4 °F - 35.6 °F 47% 29.86 in 10.0 mi West 13.8 mph 20.7 mph N/A   Mostly Cloudy
12:54 PM 55.4 °F - 33.8 °F 44% 29.85 in 10.0 mi WNW 13.8 mph 24.2 mph N/A   Mostly Cloudy
1:14 PM 55.4 °F - 32.0 °F 41% 29.84 in 10.0 mi West 13.8 mph 24.2 mph N/A   Scattered Clouds
1:34 PM 59.0 °F - 33.8 °F 39% 29.83 in 10.0 mi WNW 12.7 mph 23.0 mph N/A   Scattered Clouds
1:54 PM 55.4 °F - 33.8 °F 44% 29.83 in 10.0 mi WNW 17.3 mph 25.3 mph N/A   Scattered Clouds
2:14 PM 59.0 °F - 33.8 °F 39% 29.82 in 10.0 mi WNW 12.7 mph 26.5 mph N/A   Scattered Clouds
2:34 PM 59.0 °F - 32.0 °F 36% 29.82 in 10.0 mi WNW 13.8 mph 19.6 mph N/A   Scattered Clouds
2:54 PM 59.0 °F - 32.0 °F 36% 29.82 in 10.0 mi WNW 18.4 mph 21.9 mph N/A   Clear
3:14 PM 59.0 °F - 32.0 °F 36% 29.82 in 10.0 mi WNW 11.5 mph 21.9 mph N/A   Clear
3:34 PM 59.0 °F - 32.0 °F 36% 29.82 in 10.0 mi WNW 13.8 mph 18.4 mph N/A   Clear
3:55 PM 59.0 °F - 32.0 °F 36% 29.81 in 10.0 mi NW 18.4 mph 25.3 mph N/A   Clear
4:14 PM 59.0 °F - 32.0 °F 36% 29.81 in 10.0 mi West 9.2 mph 20.7 mph N/A   Clear
4:34 PM 59.0 °F - 30.2 °F 34% 29.81 in 10.0 mi WNW 12.7 mph 21.9 mph N/A   Clear
4:54 PM 59.0 °F - 30.2 °F 34% 29.80 in 10.0 mi NW 16.1 mph 20.7 mph N/A   Clear
5:14 PM 59.0 °F - 30.2 °F 34% 29.81 in 10.0 mi NW 13.8 mph 19.6 mph N/A   Clear
5:34 PM 59.0 °F - 30.2 °F 34% 29.81 in 10.0 mi WNW 11.5 mph 17.3 mph N/A   Clear
5:55 PM 59.0 °F - 32.0 °F 36% 29.81 in 10.0 mi WNW 6.9 mph - N/A   Scattered Clouds
6:14 PM 59.0 °F - 32.0 °F 36% 29.80 in 10.0 mi WNW 5.8 mph - N/A   Scattered Clouds
6:34 PM 55.4 °F - 32.0 °F 41% 29.81 in 10.0 mi West 6.9 mph - N/A   Scattered Clouds
6:54 PM 55.4 °F - 32.0 °F 41% 29.83 in 10.0 mi West 6.9 mph - N/A   Mostly Cloudy
7:14 PM 55.4 °F - 32.0 °F 41% 29.82 in 10.0 mi West 6.9 mph - N/A   Overcast
7:34 PM 55.4 °F - 32.0 °F 41% 29.82 in 10.0 mi WNW 5.8 mph - N/A   Overcast
7:55 PM 55.4 °F - 32.0 °F 41% 29.82 in 10.0 mi West 9.2 mph - N/A   Overcast
8:14 PM 55.4 °F - 32.0 °F 41% 29.82 in 10.0 mi West 8.1 mph - N/A   Overcast
8:34 PM 55.4 °F - 32.0 °F 41% 29.83 in 10.0 mi WNW 8.1 mph - N/A   Mostly Cloudy
8:54 PM 55.4 °F - 32.0 °F 41% 29.84 in 10.0 mi West 9.2 mph 17.3 mph N/A   Mostly Cloudy
9:14 PM 55.4 °F - 32.0 °F 41% 29.84 in 10.0 mi West 10.4 mph 21.9 mph N/A   Overcast
9:34 PM 55.4 °F - 33.8 °F 44% 29.84 in 10.0 mi West 9.2 mph 18.4 mph N/A   Overcast
9:54 PM 53.6 °F - 35.6 °F 51% 29.85 in 10.0 mi West 9.2 mph - N/A   Overcast
10:14 PM 53.6 °F - 37.4 °F 54% 29.83 in 10.0 mi NW 11.5 mph - N/A   Light Drizzle
10:34 PM 53.6 °F - 37.4 °F 54% 29.83 in 10.0 mi NW 9.2 mph - N/A   Light Drizzle
10:54 PM 53.6 °F - 35.6 °F 51% 29.82 in 10.0 mi NNW 8.1 mph - N/A   Mostly Cloudy
11:14 PM 53.6 °F - 35.6 °F 51% 29.83 in 10.0 mi NW 11.5 mph 17.3 mph N/A   Overcast
11:34 PM 53.6 °F - 35.6 °F 51% 29.84 in 10.0 mi WNW 9.2 mph 16.1 mph N/A   Overcast
11:54 PM 53.6 °F - 35.6 °F 51% 29.83 in 10.0 mi WNW 5.8 mph - N/A   Overcast